sensor_id;sensor_type;location;lat;lon;timestamp;P1;durP1;ratioP1;P2;durP2;ratioP2
27003;SDS011;14546;47.590;19.022;2024-01-11T00:00:31;72.60;;;28.08;;
27003;SDS011;14546;47.590;19.022;2024-01-11T00:02:57;66.18;;;27.65;;
27003;SDS011;14546;47.590;19.022;2024-01-11T00:05:23;67.70;;;28.40;;
27003;SDS011;14546;47.590;19.022;2024-01-11T00:07:49;71.32;;;28.90;;
27003;SDS011;14546;47.590;19.022;2024-01-11T00:10:15;70.80;;;30.45;;
27003;SDS011;14546;47.590;19.022;2024-01-11T00:12:42;79.93;;;31.00;;
27003;SDS011;14546;47.590;19.022;2024-01-11T00:15:08;69.78;;;30.75;;
27003;SDS011;14546;47.590;19.022;2024-01-11T00:17:34;74.50;;;31.30;;
27003;SDS011;14546;47.590;19.022;2024-01-11T00:20:00;78.65;;;32.15;;
27003;SDS011;14546;47.590;19.022;2024-01-11T00:22:26;65.88;;;28.98;;
27003;SDS011;14546;47.590;19.022;2024-01-11T00:24:52;72.38;;;31.27;;
27003;SDS011;14546;47.590;19.022;2024-01-11T00:27:18;69.15;;;31.05;;
27003;SDS011;14546;47.590;19.022;2024-01-11T00:29:44;73.68;;;30.38;;
27003;SDS011;14546;47.590;19.022;2024-01-11T00:32:10;72.13;;;30.20;;
27003;SDS011;14546;47.590;19.022;2024-01-11T00:34:36;70.63;;;30.13;;
27003;SDS011;14546;47.590;19.022;2024-01-11T00:37:03;77.15;;;30.58;;
27003;SDS011;14546;47.590;19.022;2024-01-11T00:39:29;67.65;;;30.17;;
27003;SDS011;14546;47.590;19.022;2024-01-11T00:41:55;65.40;;;29.23;;
27003;SDS011;14546;47.590;19.022;2024-01-11T00:44:21;72.15;;;30.88;;
27003;SDS011;14546;47.590;19.022;2024-01-11T00:46:47;70.88;;;29.98;;
27003;SDS011;14546;47.590;19.022;2024-01-11T00:49:13;66.43;;;29.98;;
27003;SDS011;14546;47.590;19.022;2024-01-11T00:51:39;78.82;;;32.22;;
27003;SDS011;14546;47.590;19.022;2024-01-11T00:54:05;79.95;;;31.95;;
27003;SDS011;14546;47.590;19.022;2024-01-11T00:56:31;72.60;;;30.02;;
27003;SDS011;14546;47.590;19.022;2024-01-11T00:58:57;83.18;;;33.67;;
27003;SDS011;14546;47.590;19.022;2024-01-11T01:01:23;78.57;;;32.17;;
27003;SDS011;14546;47.590;19.022;2024-01-11T01:03:49;78.95;;;31.27;;
27003;SDS011;14546;47.590;19.022;2024-01-11T01:06:15;76.20;;;31.63;;
27003;SDS011;14546;47.590;19.022;2024-01-11T01:08:42;67.20;;;29.35;;
27003;SDS011;14546;47.590;19.022;2024-01-11T01:11:08;81.72;;;32.13;;
27003;SDS011;14546;47.590;19.022;2024-01-11T01:13:34;82.68;;;32.55;;
27003;SDS011;14546;47.590;19.022;2024-01-11T01:16:00;69.85;;;29.55;;
27003;SDS011;14546;47.590;19.022;2024-01-11T01:18:26;80.18;;;30.77;;
27003;SDS011;14546;47.590;19.022;2024-01-11T01:20:52;75.80;;;32.53;;
27003;SDS011;14546;47.590;19.022;2024-01-11T01:23:18;78.43;;;31.65;;
27003;SDS011;14546;47.590;19.022;2024-01-11T01:25:44;69.75;;;30.85;;
27003;SDS011;14546;47.590;19.022;2024-01-11T01:28:10;76.00;;;30.13;;
27003;SDS011;14546;47.590;19.022;2024-01-11T01:30:36;75.10;;;31.20;;
27003;SDS011;14546;47.590;19.022;2024-01-11T01:33:02;70.50;;;31.25;;
27003;SDS011;14546;47.590;19.022;2024-01-11T01:35:28;69.47;;;30.17;;
27003;SDS011;14546;47.590;19.022;2024-01-11T01:37:55;74.78;;;30.45;;
27003;SDS011;14546;47.590;19.022;2024-01-11T01:40:21;71.03;;;28.63;;
27003;SDS011;14546;47.590;19.022;2024-01-11T01:42:47;71.60;;;29.05;;
27003;SDS011;14546;47.590;19.022;2024-01-11T01:45:15;70.55;;;28.98;;
27003;SDS011;14546;47.590;19.022;2024-01-11T01:47:42;68.97;;;28.23;;
27003;SDS011;14546;47.590;19.022;2024-01-11T01:50:09;68.63;;;27.23;;
27003;SDS011;14546;47.590;19.022;2024-01-11T01:52:36;62.13;;;27.02;;
27003;SDS011;14546;47.590;19.022;2024-01-11T01:55:02;65.03;;;26.63;;
27003;SDS011;14546;47.590;19.022;2024-01-11T01:57:29;61.40;;;26.52;;
27003;SDS011;14546;47.590;19.022;2024-01-11T01:59:56;61.80;;;24.92;;
27003;SDS011;14546;47.590;19.022;2024-01-11T02:02:22;62.97;;;26.00;;
27003;SDS011;14546;47.590;19.022;2024-01-11T02:04:49;52.20;;;23.50;;
27003;SDS011;14546;47.590;19.022;2024-01-11T02:07:15;62.53;;;24.77;;
27003;SDS011;14546;47.590;19.022;2024-01-11T02:09:41;56.47;;;24.17;;
27003;SDS011;14546;47.590;19.022;2024-01-11T02:12:08;66.32;;;24.75;;
27003;SDS011;14546;47.590;19.022;2024-01-11T02:14:37;61.33;;;23.80;;
27003;SDS011;14546;47.590;19.022;2024-01-11T02:17:03;52.03;;;23.05;;
27003;SDS011;14546;47.590;19.022;2024-01-11T02:19:29;55.08;;;23.90;;
27003;SDS011;14546;47.590;19.022;2024-01-11T02:21:55;55.67;;;23.58;;
27003;SDS011;14546;47.590;19.022;2024-01-11T02:24:24;59.47;;;24.45;;
27003;SDS011;14546;47.590;19.022;2024-01-11T02:27:00;57.40;;;24.10;;
27003;SDS011;14546;47.590;19.022;2024-01-11T02:29:27;51.75;;;22.38;;
27003;SDS011;14546;47.590;19.022;2024-01-11T02:31:53;53.33;;;23.17;;
27003;SDS011;14546;47.590;19.022;2024-01-11T02:34:19;52.40;;;21.67;;
27003;SDS011;14546;47.590;19.022;2024-01-11T02:36:46;51.33;;;21.98;;
27003;SDS011;14546;47.590;19.022;2024-01-11T02:39:13;51.78;;;20.25;;
27003;SDS011;14546;47.590;19.022;2024-01-11T02:41:39;45.63;;;20.98;;
27003;SDS011;14546;47.590;19.022;2024-01-11T02:44:05;49.92;;;21.00;;
27003;SDS011;14546;47.590;19.022;2024-01-11T02:46:32;44.08;;;19.42;;
27003;SDS011;14546;47.590;19.022;2024-01-11T02:48:58;50.75;;;21.27;;
27003;SDS011;14546;47.590;19.022;2024-01-11T02:51:24;46.63;;;19.02;;
27003;SDS011;14546;47.590;19.022;2024-01-11T02:53:50;55.47;;;21.08;;
27003;SDS011;14546;47.590;19.022;2024-01-11T02:56:16;46.75;;;19.48;;
27003;SDS011;14546;47.590;19.022;2024-01-11T02:58:42;48.78;;;19.27;;
27003;SDS011;14546;47.590;19.022;2024-01-11T03:01:08;43.38;;;18.48;;
27003;SDS011;14546;47.590;19.022;2024-01-11T03:03:34;43.97;;;19.52;;
27003;SDS011;14546;47.590;19.022;2024-01-11T03:06:00;51.67;;;19.73;;
27003;SDS011;14546;47.590;19.022;2024-01-11T03:08:26;40.60;;;18.42;;
27003;SDS011;14546;47.590;19.022;2024-01-11T03:10:52;51.63;;;19.75;;
27003;SDS011;14546;47.590;19.022;2024-01-11T03:13:18;48.33;;;19.63;;
27003;SDS011;14546;47.590;19.022;2024-01-11T03:15:44;48.22;;;19.20;;
27003;SDS011;14546;47.590;19.022;2024-01-11T03:18:10;45.97;;;19.52;;
27003;SDS011;14546;47.590;19.022;2024-01-11T03:20:36;50.63;;;19.80;;
27003;SDS011;14546;47.590;19.022;2024-01-11T03:23:02;56.42;;;19.75;;
27003;SDS011;14546;47.590;19.022;2024-01-11T03:25:31;45.60;;;18.75;;
27003;SDS011;14546;47.590;19.022;2024-01-11T03:27:58;41.42;;;19.38;;
27003;SDS011;14546;47.590;19.022;2024-01-11T03:30:24;43.97;;;19.33;;
27003;SDS011;14546;47.590;19.022;2024-01-11T03:32:50;48.08;;;19.70;;
27003;SDS011;14546;47.590;19.022;2024-01-11T03:35:17;52.17;;;20.30;;
27003;SDS011;14546;47.590;19.022;2024-01-11T03:37:43;51.92;;;20.70;;
27003;SDS011;14546;47.590;19.022;2024-01-11T03:40:09;50.20;;;20.92;;
27003;SDS011;14546;47.590;19.022;2024-01-11T03:42:36;59.47;;;21.15;;
27003;SDS011;14546;47.590;19.022;2024-01-11T03:45:02;48.40;;;20.08;;
27003;SDS011;14546;47.590;19.022;2024-01-11T03:47:29;46.53;;;21.42;;
27003;SDS011;14546;47.590;19.022;2024-01-11T03:49:54;48.17;;;19.77;;
27003;SDS011;14546;47.590;19.022;2024-01-11T03:52:21;47.15;;;19.75;;
27003;SDS011;14546;47.590;19.022;2024-01-11T03:54:47;48.30;;;21.55;;
27003;SDS011;14546;47.590;19.022;2024-01-11T03:57:13;56.25;;;22.73;;
27003;SDS011;14546;47.590;19.022;2024-01-11T03:59:39;56.50;;;22.92;;
27003;SDS011;14546;47.590;19.022;2024-01-11T04:02:05;44.08;;;20.08;;
27003;SDS011;14546;47.590;19.022;2024-01-11T04:04:32;43.85;;;19.42;;
27003;SDS011;14546;47.590;19.022;2024-01-11T04:06:58;50.25;;;21.20;;
27003;SDS011;14546;47.590;19.022;2024-01-11T04:09:24;51.10;;;19.42;;
27003;SDS011;14546;47.590;19.022;2024-01-11T04:11:50;47.35;;;20.73;;
27003;SDS011;14546;47.590;19.022;2024-01-11T04:14:16;54.22;;;21.67;;
27003;SDS011;14546;47.590;19.022;2024-01-11T04:16:42;45.17;;;20.30;;
27003;SDS011;14546;47.590;19.022;2024-01-11T04:19:08;47.15;;;20.52;;
27003;SDS011;14546;47.590;19.022;2024-01-11T04:21:34;42.17;;;19.98;;
27003;SDS011;14546;47.590;19.022;2024-01-11T04:24:03;47.80;;;21.25;;
27003;SDS011;14546;47.590;19.022;2024-01-11T04:26:30;47.95;;;21.88;;
27003;SDS011;14546;47.590;19.022;2024-01-11T04:28:56;47.20;;;21.67;;
27003;SDS011;14546;47.590;19.022;2024-01-11T04:31:24;56.67;;;23.35;;
27003;SDS011;14546;47.590;19.022;2024-01-11T04:33:50;49.00;;;22.05;;
27003;SDS011;14546;47.590;19.022;2024-01-11T04:36:16;56.53;;;22.83;;
27003;SDS011;14546;47.590;19.022;2024-01-11T04:38:43;50.00;;;21.10;;
27003;SDS011;14546;47.590;19.022;2024-01-11T04:41:12;53.70;;;24.10;;
27003;SDS011;14546;47.590;19.022;2024-01-11T04:43:39;51.28;;;22.13;;
27003;SDS011;14546;47.590;19.022;2024-01-11T04:46:17;48.33;;;21.42;;
27003;SDS011;14546;47.590;19.022;2024-01-11T04:48:44;49.03;;;21.30;;
27003;SDS011;14546;47.590;19.022;2024-01-11T04:51:10;49.55;;;21.33;;
27003;SDS011;14546;47.590;19.022;2024-01-11T04:53:37;48.55;;;21.17;;
27003;SDS011;14546;47.590;19.022;2024-01-11T04:56:04;50.38;;;21.65;;
27003;SDS011;14546;47.590;19.022;2024-01-11T04:58:30;52.28;;;22.20;;
27003;SDS011;14546;47.590;19.022;2024-01-11T05:00:56;51.88;;;20.63;;
27003;SDS011;14546;47.590;19.022;2024-01-11T05:03:22;56.08;;;23.23;;
27003;SDS011;14546;47.590;19.022;2024-01-11T05:05:48;73.30;;;29.85;;
27003;SDS011;14546;47.590;19.022;2024-01-11T05:08:14;88.15;;;34.28;;
27003;SDS011;14546;47.590;19.022;2024-01-11T05:10:40;75.10;;;32.40;;
27003;SDS011;14546;47.590;19.022;2024-01-11T05:13:06;70.40;;;29.38;;
27003;SDS011;14546;47.590;19.022;2024-01-11T05:15:32;73.63;;;30.20;;
27003;SDS011;14546;47.590;19.022;2024-01-11T05:17:58;67.60;;;29.58;;
27003;SDS011;14546;47.590;19.022;2024-01-11T05:20:24;68.68;;;28.23;;
27003;SDS011;14546;47.590;19.022;2024-01-11T05:22:50;67.10;;;29.70;;
27003;SDS011;14546;47.590;19.022;2024-01-11T05:25:16;61.20;;;27.00;;
27003;SDS011;14546;47.590;19.022;2024-01-11T05:27:42;48.33;;;21.52;;
27003;SDS011;14546;47.590;19.022;2024-01-11T05:30:09;67.68;;;27.20;;
27003;SDS011;14546;47.590;19.022;2024-01-11T05:32:35;60.30;;;26.90;;
27003;SDS011;14546;47.590;19.022;2024-01-11T05:35:01;54.65;;;24.90;;
27003;SDS011;14546;47.590;19.022;2024-01-11T05:37:27;61.60;;;26.33;;
27003;SDS011;14546;47.590;19.022;2024-01-11T05:39:53;55.50;;;24.85;;
27003;SDS011;14546;47.590;19.022;2024-01-11T05:42:22;58.13;;;25.98;;
27003;SDS011;14546;47.590;19.022;2024-01-11T05:44:48;58.13;;;25.02;;
27003;SDS011;14546;47.590;19.022;2024-01-11T05:47:14;56.63;;;24.65;;
27003;SDS011;14546;47.590;19.022;2024-01-11T05:49:40;64.50;;;27.60;;
27003;SDS011;14546;47.590;19.022;2024-01-11T05:52:06;63.92;;;26.48;;
27003;SDS011;14546;47.590;19.022;2024-01-11T05:54:32;68.68;;;27.45;;
27003;SDS011;14546;47.590;19.022;2024-01-11T05:56:58;64.25;;;27.60;;
27003;SDS011;14546;47.590;19.022;2024-01-11T05:59:24;66.72;;;26.98;;
27003;SDS011;14546;47.590;19.022;2024-01-11T06:01:51;60.25;;;26.83;;
27003;SDS011;14546;47.590;19.022;2024-01-11T06:04:17;70.30;;;28.67;;
27003;SDS011;14546;47.590;19.022;2024-01-11T06:06:43;64.00;;;28.45;;
27003;SDS011;14546;47.590;19.022;2024-01-11T06:09:09;66.15;;;27.25;;
27003;SDS011;14546;47.590;19.022;2024-01-11T06:11:35;68.63;;;28.85;;
27003;SDS011;14546;47.590;19.022;2024-01-11T06:14:01;42.33;;;17.95;;
27003;SDS011;14546;47.590;19.022;2024-01-11T06:16:28;47.83;;;20.92;;
27003;SDS011;14546;47.590;19.022;2024-01-11T06:18:54;76.00;;;28.35;;
27003;SDS011;14546;47.590;19.022;2024-01-11T06:21:20;62.22;;;28.08;;
27003;SDS011;14546;47.590;19.022;2024-01-11T06:23:46;72.35;;;31.90;;
27003;SDS011;14546;47.590;19.022;2024-01-11T06:26:12;66.22;;;27.88;;
27003;SDS011;14546;47.590;19.022;2024-01-11T06:28:39;67.43;;;30.63;;
27003;SDS011;14546;47.590;19.022;2024-01-11T06:31:05;68.88;;;30.25;;
27003;SDS011;14546;47.590;19.022;2024-01-11T06:33:31;73.05;;;30.35;;
27003;SDS011;14546;47.590;19.022;2024-01-11T06:36:01;70.22;;;29.60;;
27003;SDS011;14546;47.590;19.022;2024-01-11T06:38:27;70.75;;;31.42;;
27003;SDS011;14546;47.590;19.022;2024-01-11T06:40:53;68.75;;;29.90;;
27003;SDS011;14546;47.590;19.022;2024-01-11T06:43:19;71.50;;;30.25;;
27003;SDS011;14546;47.590;19.022;2024-01-11T06:45:45;87.85;;;34.17;;
27003;SDS011;14546;47.590;19.022;2024-01-11T06:48:11;78.05;;;34.47;;
27003;SDS011;14546;47.590;19.022;2024-01-11T06:50:38;84.80;;;35.97;;
27003;SDS011;14546;47.590;19.022;2024-01-11T06:53:03;86.78;;;37.45;;
27003;SDS011;14546;47.590;19.022;2024-01-11T06:55:29;84.78;;;35.03;;
27003;SDS011;14546;47.590;19.022;2024-01-11T06:57:55;84.40;;;35.10;;
27003;SDS011;14546;47.590;19.022;2024-01-11T07:00:22;84.03;;;35.63;;
27003;SDS011;14546;47.590;19.022;2024-01-11T07:02:48;81.85;;;33.67;;
27003;SDS011;14546;47.590;19.022;2024-01-11T07:05:15;76.47;;;33.28;;
27003;SDS011;14546;47.590;19.022;2024-01-11T07:07:41;73.05;;;32.67;;
27003;SDS011;14546;47.590;19.022;2024-01-11T07:10:07;77.53;;;33.08;;
27003;SDS011;14546;47.590;19.022;2024-01-11T07:12:33;79.07;;;34.40;;
27003;SDS011;14546;47.590;19.022;2024-01-11T07:14:59;66.75;;;30.67;;
27003;SDS011;14546;47.590;19.022;2024-01-11T07:17:26;76.60;;;32.28;;
27003;SDS011;14546;47.590;19.022;2024-01-11T07:19:51;85.03;;;33.45;;
27003;SDS011;14546;47.590;19.022;2024-01-11T07:22:17;85.30;;;34.83;;
27003;SDS011;14546;47.590;19.022;2024-01-11T07:24:44;91.68;;;37.50;;
27003;SDS011;14546;47.590;19.022;2024-01-11T07:27:10;86.78;;;35.47;;
27003;SDS011;14546;47.590;19.022;2024-01-11T07:29:36;92.38;;;38.00;;
27003;SDS011;14546;47.590;19.022;2024-01-11T07:32:02;98.80;;;40.35;;
27003;SDS011;14546;47.590;19.022;2024-01-11T07:34:29;84.20;;;36.33;;
27003;SDS011;14546;47.590;19.022;2024-01-11T07:36:55;81.20;;;35.88;;
27003;SDS011;14546;47.590;19.022;2024-01-11T07:39:22;76.93;;;36.15;;
27003;SDS011;14546;47.590;19.022;2024-01-11T07:41:48;79.45;;;36.03;;
27003;SDS011;14546;47.590;19.022;2024-01-11T07:44:14;80.93;;;36.28;;
27003;SDS011;14546;47.590;19.022;2024-01-11T07:46:40;77.47;;;32.63;;
27003;SDS011;14546;47.590;19.022;2024-01-11T07:49:06;84.25;;;36.53;;
27003;SDS011;14546;47.590;19.022;2024-01-11T07:51:33;79.57;;;35.65;;
27003;SDS011;14546;47.590;19.022;2024-01-11T07:54:03;84.32;;;35.60;;
27003;SDS011;14546;47.590;19.022;2024-01-11T07:56:30;71.75;;;34.15;;
27003;SDS011;14546;47.590;19.022;2024-01-11T07:58:56;92.07;;;36.03;;
27003;SDS011;14546;47.590;19.022;2024-01-11T08:01:22;93.85;;;36.70;;
27003;SDS011;14546;47.590;19.022;2024-01-11T08:03:48;74.82;;;32.95;;
27003;SDS011;14546;47.590;19.022;2024-01-11T08:06:17;65.78;;;29.10;;
27003;SDS011;14546;47.590;19.022;2024-01-11T08:08:43;59.08;;;26.30;;
27003;SDS011;14546;47.590;19.022;2024-01-11T08:11:09;76.55;;;30.48;;
27003;SDS011;14546;47.590;19.022;2024-01-11T08:13:37;73.43;;;32.15;;
27003;SDS011;14546;47.590;19.022;2024-01-11T08:16:03;74.43;;;30.58;;
27003;SDS011;14546;47.590;19.022;2024-01-11T08:18:32;68.90;;;30.27;;
27003;SDS011;14546;47.590;19.022;2024-01-11T08:20:58;65.57;;;30.67;;
27003;SDS011;14546;47.590;19.022;2024-01-11T08:23:24;67.18;;;28.58;;
27003;SDS011;14546;47.590;19.022;2024-01-11T08:25:51;61.60;;;26.55;;
27003;SDS011;14546;47.590;19.022;2024-01-11T08:28:20;80.65;;;30.52;;
27003;SDS011;14546;47.590;19.022;2024-01-11T08:30:46;73.93;;;29.63;;
27003;SDS011;14546;47.590;19.022;2024-01-11T08:33:12;59.05;;;27.55;;
27003;SDS011;14546;47.590;19.022;2024-01-11T08:35:39;42.83;;;20.67;;
27003;SDS011;14546;47.590;19.022;2024-01-11T08:38:05;64.70;;;25.33;;
27003;SDS011;14546;47.590;19.022;2024-01-11T08:40:31;70.50;;;27.35;;
27003;SDS011;14546;47.590;19.022;2024-01-11T08:42:57;66.43;;;28.73;;
27003;SDS011;14546;47.590;19.022;2024-01-11T08:45:24;61.85;;;28.65;;
27003;SDS011;14546;47.590;19.022;2024-01-11T08:47:50;51.30;;;20.05;;
27003;SDS011;14546;47.590;19.022;2024-01-11T08:50:16;55.63;;;25.83;;
27003;SDS011;14546;47.590;19.022;2024-01-11T08:52:43;61.40;;;26.92;;
27003;SDS011;14546;47.590;19.022;2024-01-11T08:55:09;49.63;;;23.75;;
27003;SDS011;14546;47.590;19.022;2024-01-11T08:57:37;66.63;;;25.63;;
27003;SDS011;14546;47.590;19.022;2024-01-11T09:00:04;63.15;;;27.50;;
27003;SDS011;14546;47.590;19.022;2024-01-11T09:02:33;51.92;;;22.98;;
27003;SDS011;14546;47.590;19.022;2024-01-11T09:05:00;42.80;;;20.40;;
27003;SDS011;14546;47.590;19.022;2024-01-11T09:07:27;41.40;;;20.50;;
27003;SDS011;14546;47.590;19.022;2024-01-11T09:09:53;42.28;;;19.90;;
27003;SDS011;14546;47.590;19.022;2024-01-11T09:12:19;26.95;;;12.27;;
27003;SDS011;14546;47.590;19.022;2024-01-11T09:14:45;36.17;;;17.13;;
27003;SDS011;14546;47.590;19.022;2024-01-11T09:17:11;33.25;;;16.90;;
27003;SDS011;14546;47.590;19.022;2024-01-11T09:19:37;42.33;;;16.60;;
27003;SDS011;14546;47.590;19.022;2024-01-11T09:22:05;29.33;;;12.13;;
27003;SDS011;14546;47.590;19.022;2024-01-11T09:24:31;36.78;;;15.15;;
27003;SDS011;14546;47.590;19.022;2024-01-11T09:26:57;31.08;;;15.25;;
27003;SDS011;14546;47.590;19.022;2024-01-11T09:29:23;32.25;;;15.65;;
27003;SDS011;14546;47.590;19.022;2024-01-11T09:31:49;35.50;;;15.80;;
27003;SDS011;14546;47.590;19.022;2024-01-11T09:34:15;33.17;;;16.33;;
27003;SDS011;14546;47.590;19.022;2024-01-11T09:36:42;34.78;;;17.30;;
27003;SDS011;14546;47.590;19.022;2024-01-11T09:39:08;37.92;;;15.55;;
27003;SDS011;14546;47.590;19.022;2024-01-11T09:41:35;36.72;;;18.63;;
27003;SDS011;14546;47.590;19.022;2024-01-11T09:44:02;37.45;;;17.40;;
27003;SDS011;14546;47.590;19.022;2024-01-11T09:46:31;36.20;;;17.65;;
27003;SDS011;14546;47.590;19.022;2024-01-11T09:48:57;31.55;;;16.38;;
27003;SDS011;14546;47.590;19.022;2024-01-11T09:51:24;34.15;;;15.85;;
27003;SDS011;14546;47.590;19.022;2024-01-11T09:53:51;36.85;;;15.93;;
27003;SDS011;14546;47.590;19.022;2024-01-11T09:56:18;38.22;;;17.70;;
27003;SDS011;14546;47.590;19.022;2024-01-11T09:58:46;29.67;;;16.17;;
27003;SDS011;14546;47.590;19.022;2024-01-11T10:01:15;36.25;;;17.70;;
27003;SDS011;14546;47.590;19.022;2024-01-11T10:03:42;38.78;;;19.50;;
27003;SDS011;14546;47.590;19.022;2024-01-11T10:06:08;36.25;;;18.52;;
27003;SDS011;14546;47.590;19.022;2024-01-11T10:08:34;28.25;;;16.17;;
27003;SDS011;14546;47.590;19.022;2024-01-11T10:11:01;29.30;;;15.27;;
27003;SDS011;14546;47.590;19.022;2024-01-11T10:13:28;40.40;;;20.65;;
27003;SDS011;14546;47.590;19.022;2024-01-11T10:18:33;36.97;;;18.27;;
27003;SDS011;14546;47.590;19.022;2024-01-11T10:20:59;44.38;;;23.25;;
27003;SDS011;14546;47.590;19.022;2024-01-11T10:23:26;46.28;;;23.08;;
27003;SDS011;14546;47.590;19.022;2024-01-11T10:25:54;40.22;;;21.17;;
27003;SDS011;14546;47.590;19.022;2024-01-11T10:28:20;49.42;;;23.52;;
27003;SDS011;14546;47.590;19.022;2024-01-11T10:30:46;44.60;;;19.65;;
27003;SDS011;14546;47.590;19.022;2024-01-11T10:33:13;45.88;;;23.33;;
27003;SDS011;14546;47.590;19.022;2024-01-11T10:35:39;41.28;;;18.65;;
27003;SDS011;14546;47.590;19.022;2024-01-11T10:38:06;31.35;;;14.82;;
27003;SDS011;14546;47.590;19.022;2024-01-11T10:40:34;31.13;;;16.17;;
27003;SDS011;14546;47.590;19.022;2024-01-11T10:43:00;33.80;;;17.33;;
27003;SDS011;14546;47.590;19.022;2024-01-11T10:45:27;34.72;;;18.63;;
27003;SDS011;14546;47.590;19.022;2024-01-11T10:47:53;37.38;;;18.13;;
27003;SDS011;14546;47.590;19.022;2024-01-11T10:50:22;36.05;;;17.65;;
27003;SDS011;14546;47.590;19.022;2024-01-11T10:55:37;37.58;;;19.73;;
27003;SDS011;14546;47.590;19.022;2024-01-11T10:58:05;32.50;;;16.40;;
27003;SDS011;14546;47.590;19.022;2024-01-11T11:00:31;37.22;;;19.08;;
27003;SDS011;14546;47.590;19.022;2024-01-11T11:02:59;42.30;;;20.73;;
27003;SDS011;14546;47.590;19.022;2024-01-11T11:05:26;43.17;;;20.85;;
27003;SDS011;14546;47.590;19.022;2024-01-11T11:07:53;42.28;;;20.05;;
27003;SDS011;14546;47.590;19.022;2024-01-11T11:10:21;42.08;;;20.73;;
27003;SDS011;14546;47.590;19.022;2024-01-11T11:12:48;35.90;;;16.35;;
27003;SDS011;14546;47.590;19.022;2024-01-11T11:15:14;45.80;;;22.05;;
27003;SDS011;14546;47.590;19.022;2024-01-11T11:17:41;45.88;;;24.52;;
27003;SDS011;14546;47.590;19.022;2024-01-11T11:20:08;35.65;;;17.80;;
27003;SDS011;14546;47.590;19.022;2024-01-11T11:22:36;40.60;;;22.92;;
27003;SDS011;14546;47.590;19.022;2024-01-11T11:25:07;37.80;;;19.45;;
27003;SDS011;14546;47.590;19.022;2024-01-11T11:27:34;43.38;;;23.88;;
27003;SDS011;14546;47.590;19.022;2024-01-11T11:30:00;44.50;;;22.70;;
27003;SDS011;14546;47.590;19.022;2024-01-11T11:32:38;46.30;;;23.23;;
27003;SDS011;14546;47.590;19.022;2024-01-11T11:35:08;42.97;;;24.40;;
27003;SDS011;14546;47.590;19.022;2024-01-11T11:37:37;45.83;;;24.55;;
27003;SDS011;14546;47.590;19.022;2024-01-11T11:40:04;49.78;;;25.33;;
27003;SDS011;14546;47.590;19.022;2024-01-11T11:42:31;44.00;;;23.60;;
27003;SDS011;14546;47.590;19.022;2024-01-11T11:44:57;43.95;;;23.38;;
27003;SDS011;14546;47.590;19.022;2024-01-11T11:47:23;44.55;;;19.05;;
27003;SDS011;14546;47.590;19.022;2024-01-11T11:50:06;46.33;;;23.65;;
27003;SDS011;14546;47.590;19.022;2024-01-11T11:52:33;45.55;;;22.67;;
27003;SDS011;14546;47.590;19.022;2024-01-11T11:55:00;29.58;;;15.88;;
27003;SDS011;14546;47.590;19.022;2024-01-11T11:57:27;32.47;;;16.80;;
27003;SDS011;14546;47.590;19.022;2024-01-11T11:59:56;40.00;;;20.75;;
27003;SDS011;14546;47.590;19.022;2024-01-11T12:02:23;39.30;;;20.08;;
27003;SDS011;14546;47.590;19.022;2024-01-11T12:04:50;35.25;;;19.10;;
27003;SDS011;14546;47.590;19.022;2024-01-11T12:07:16;35.50;;;18.75;;
27003;SDS011;14546;47.590;19.022;2024-01-11T12:09:42;35.03;;;17.17;;
27003;SDS011;14546;47.590;19.022;2024-01-11T12:12:08;34.80;;;18.75;;
27003;SDS011;14546;47.590;19.022;2024-01-11T12:14:35;37.85;;;18.70;;
27003;SDS011;14546;47.590;19.022;2024-01-11T12:17:01;33.03;;;15.57;;
27003;SDS011;14546;47.590;19.022;2024-01-11T12:19:27;40.58;;;17.48;;
27003;SDS011;14546;47.590;19.022;2024-01-11T12:21:54;35.47;;;17.67;;
27003;SDS011;14546;47.590;19.022;2024-01-11T12:24:20;34.15;;;18.25;;
27003;SDS011;14546;47.590;19.022;2024-01-11T12:26:48;31.50;;;16.80;;
27003;SDS011;14546;47.590;19.022;2024-01-11T12:29:17;36.63;;;17.95;;
27003;SDS011;14546;47.590;19.022;2024-01-11T12:31:43;33.35;;;15.90;;
27003;SDS011;14546;47.590;19.022;2024-01-11T12:34:11;34.65;;;17.98;;
27003;SDS011;14546;47.590;19.022;2024-01-11T12:36:37;32.75;;;18.45;;
27003;SDS011;14546;47.590;19.022;2024-01-11T12:39:03;36.50;;;19.63;;
27003;SDS011;14546;47.590;19.022;2024-01-11T12:41:31;30.48;;;16.48;;
27003;SDS011;14546;47.590;19.022;2024-01-11T12:43:57;29.60;;;14.55;;
27003;SDS011;14546;47.590;19.022;2024-01-11T12:46:24;32.78;;;18.05;;
27003;SDS011;14546;47.590;19.022;2024-01-11T12:48:50;33.20;;;17.75;;
27003;SDS011;14546;47.590;19.022;2024-01-11T12:51:16;34.10;;;17.80;;
27003;SDS011;14546;47.590;19.022;2024-01-11T12:53:46;35.25;;;17.17;;
27003;SDS011;14546;47.590;19.022;2024-01-11T12:56:15;39.63;;;19.52;;
27003;SDS011;14546;47.590;19.022;2024-01-11T12:58:42;33.85;;;15.77;;
27003;SDS011;14546;47.590;19.022;2024-01-11T13:01:08;38.03;;;19.83;;
27003;SDS011;14546;47.590;19.022;2024-01-11T13:03:35;36.95;;;18.98;;
27003;SDS011;14546;47.590;19.022;2024-01-11T13:06:02;39.50;;;21.67;;
27003;SDS011;14546;47.590;19.022;2024-01-11T13:08:30;43.17;;;20.42;;
27003;SDS011;14546;47.590;19.022;2024-01-11T13:10:56;41.45;;;18.85;;
27003;SDS011;14546;47.590;19.022;2024-01-11T13:13:22;41.15;;;20.92;;
27003;SDS011;14546;47.590;19.022;2024-01-11T13:15:48;31.60;;;14.25;;
27003;SDS011;14546;47.590;19.022;2024-01-11T13:18:15;38.85;;;20.02;;
27003;SDS011;14546;47.590;19.022;2024-01-11T13:20:41;38.53;;;18.88;;
27003;SDS011;14546;47.590;19.022;2024-01-11T13:23:11;38.75;;;19.05;;
27003;SDS011;14546;47.590;19.022;2024-01-11T13:25:41;30.05;;;16.40;;
27003;SDS011;14546;47.590;19.022;2024-01-11T13:28:07;42.97;;;19.52;;
27003;SDS011;14546;47.590;19.022;2024-01-11T13:30:34;35.75;;;19.60;;
27003;SDS011;14546;47.590;19.022;2024-01-11T13:33:00;41.20;;;20.60;;
27003;SDS011;14546;47.590;19.022;2024-01-11T13:35:26;33.53;;;19.13;;
27003;SDS011;14546;47.590;19.022;2024-01-11T13:37:52;36.70;;;19.23;;
27003;SDS011;14546;47.590;19.022;2024-01-11T13:40:18;43.75;;;21.13;;
27003;SDS011;14546;47.590;19.022;2024-01-11T13:42:52;40.17;;;20.08;;
27003;SDS011;14546;47.590;19.022;2024-01-11T13:45:18;40.22;;;19.40;;
27003;SDS011;14546;47.590;19.022;2024-01-11T13:47:44;42.85;;;20.48;;
27003;SDS011;14546;47.590;19.022;2024-01-11T13:50:10;42.83;;;19.98;;
27003;SDS011;14546;47.590;19.022;2024-01-11T13:52:37;40.95;;;21.02;;
27003;SDS011;14546;47.590;19.022;2024-01-11T13:55:03;39.47;;;19.48;;
27003;SDS011;14546;47.590;19.022;2024-01-11T13:57:29;40.08;;;20.45;;
27003;SDS011;14546;47.590;19.022;2024-01-11T13:59:56;36.88;;;18.10;;
27003;SDS011;14546;47.590;19.022;2024-01-11T14:02:22;38.53;;;19.55;;
27003;SDS011;14546;47.590;19.022;2024-01-11T14:04:48;40.42;;;20.48;;
27003;SDS011;14546;47.590;19.022;2024-01-11T14:07:14;39.13;;;18.30;;
27003;SDS011;14546;47.590;19.022;2024-01-11T14:09:40;39.17;;;18.85;;